Time;durP1;ratioP1;P1;durP2;ratioP2;P2;SDS_P1;SDS_P2;PMS_P1;PMS_P2;Temp;Humidity;BMP_temperature;BMP_pressure;BME280_temperature;BME280_humidity;BME280_pressure;Samples;Min_cycle;Max_cycle;Signal;HPM_P1;HPM_P2
2023/10/10 00:01:02;;;;;;;5.38;3.55;;;15.70;99.90;;;;;;5040700;28;20037;-75
2023/10/10 00:03:31;;;;;;;8.27;2.80;;;15.70;99.90;;;;;;5031542;28;20499;-75
2023/10/10 00:06:06;;;;;;;4.80;3.00;;;15.70;99.90;;;;;;5022787;28;20054;-75
2023/10/10 00:08:36;;;;;;;6.88;2.85;;;15.70;99.90;;;;;;5035021;28;20041;-75
2023/10/10 00:11:15;;;;;;;5.75;3.47;;;15.70;99.90;;;;;;5024562;28;20041;-75
2023/10/10 00:13:42;;;;;;;5.40;3.33;;;15.70;99.90;;;;;;5033257;28;20112;-75
2023/10/10 00:16:23;;;;;;;7.72;2.75;;;15.70;99.90;;;;;;5045184;28;20037;-75
2023/10/10 00:18:49;;;;;;;6.30;2.83;;;15.70;99.90;;;;;;5040951;28;20041;-75
2023/10/10 00:21:23;;;;;;;6.38;3.05;;;15.70;99.90;;;;;;5022849;28;20053;-75
2023/10/10 00:23:53;;;;;;;3.90;2.50;;;15.70;99.90;;;;;;5025044;28;20579;-75
2023/10/10 00:26:22;;;;;;;3.78;2.50;;;15.70;99.90;;;;;;5039972;28;20416;-75
2023/10/10 00:28:54;;;;;;;5.68;2.40;;;15.70;99.90;;;;;;5024561;28;20295;-76
2023/10/10 00:31:24;;;;;;;6.45;2.55;;;15.70;99.90;;;;;;5024025;28;20049;-75
2023/10/10 00:33:51;;;;;;;4.18;2.28;;;15.70;99.90;;;;;;5023938;28;20046;-74
2023/10/10 00:36:22;;;;;;;4.95;2.92;;;15.70;99.90;;;;;;5022609;28;20045;-75
2023/10/10 00:44:17;;;;;;;5.53;2.35;;;15.70;99.90;;;;;;5023011;28;20097;-75
2023/10/10 00:46:47;;;;;;;5.05;2.55;;;15.60;99.90;;;;;;5034464;28;20051;-75
2023/10/10 00:49:17;;;;;;;3.83;2.38;;;15.60;99.90;;;;;;5026205;28;20140;-75
2023/10/10 00:51:47;;;;;;;4.13;2.33;;;15.60;99.90;;;;;;5025471;28;20107;-75
2023/10/10 00:56:52;;;;;;;4.85;2.45;;;15.60;99.90;;;;;;5041181;28;20049;-75
2023/10/10 00:59:18;;;;;;;5.65;2.60;;;15.50;99.90;;;;;;5042847;28;20392;-75
2023/10/10 01:01:45;;;;;;;4.28;2.67;;;15.50;99.90;;;;;;5037497;28;20040;-75
2023/10/10 01:04:12;;;;;;;3.88;2.65;;;15.40;99.90;;;;;;5022223;28;20041;-75
2023/10/10 01:06:40;;;;;;;5.18;2.42;;;15.40;99.90;;;;;;5026262;28;20052;-75
2023/10/10 01:09:20;;;;;;;3.60;2.33;;;15.40;99.90;;;;;;5043387;28;20033;-75
2023/10/10 01:11:48;;;;;;;2.08;1.50;;;15.30;99.90;;;;;;5037845;28;20052;-75
2023/10/10 01:14:26;;;;;;;7.18;2.92;;;15.30;99.90;;;;;;5033431;28;20095;-75
2023/10/10 01:16:57;;;;;;;4.72;2.50;;;15.30;99.90;;;;;;5022036;28;20052;-75
2023/10/10 01:19:28;;;;;;;4.22;2.25;;;15.20;99.90;;;;;;5021724;28;20491;-75
2023/10/10 01:21:58;;;;;;;4.03;2.33;;;15.10;99.90;;;;;;5020837;28;20046;-75
2023/10/10 01:24:25;;;;;;;4.38;2.33;;;15.10;99.90;;;;;;5028329;28;20049;-75
2023/10/10 01:26:52;;;;;;;3.25;2.35;;;15.10;99.90;;;;;;5040685;28;20055;-75
2023/10/10 01:31:45;;;;;;;3.22;2.30;;;15.10;99.90;;;;;;5041295;28;20140;-75
2023/10/10 01:34:30;;;;;;;6.78;2.75;;;15.10;99.90;;;;;;5035108;28;20043;-74
2023/10/10 01:37:20;;;;;;;6.15;2.83;;;15.10;99.90;;;;;;5034868;28;20048;-75
2023/10/10 01:40:17;;;;;;;5.07;3.17;;;15.10;99.90;;;;;;5040617;28;20076;-75
2023/10/10 01:42:59;;;;;;;6.35;2.75;;;15.10;99.90;;;;;;5038761;28;20044;-75
2023/10/10 01:45:27;;;;;;;4.78;3.30;;;15.10;99.90;;;;;;5021479;28;20126;-74
2023/10/10 01:48:08;;;;;;;6.38;2.50;;;15.20;99.90;;;;;;5022374;28;20053;-74
2023/10/10 01:50:34;;;;;;;5.75;2.70;;;15.20;99.90;;;;;;5005504;28;20175;-74
2023/10/10 01:53:00;;;;;;;3.88;2.55;;;15.20;99.90;;;;;;5021619;28;20099;-74
2023/10/10 01:55:26;;;;;;;6.88;2.63;;;15.20;99.90;;;;;;5020968;28;20596;-74
2023/10/10 01:57:53;;;;;;;7.57;3.22;;;15.20;99.90;;;;;;5021605;28;20081;-74
2023/10/10 02:00:26;;;;;;;4.97;2.58;;;15.20;99.90;;;;;;5021599;28;20045;-74
2023/10/10 02:02:53;;;;;;;5.78;2.60;;;15.20;99.90;;;;;;5023088;28;20041;-74
2023/10/10 02:05:32;;;;;;;5.22;2.53;;;15.20;99.90;;;;;;5023850;28;20085;-75
2023/10/10 02:07:58;;;;;;;4.13;2.38;;;15.20;99.90;;;;;;5033466;28;20049;-74
2023/10/10 02:10:29;;;;;;;5.00;2.58;;;15.20;99.90;;;;;;5020093;28;20146;-74
2023/10/10 02:12:59;;;;;;;5.20;2.67;;;15.10;99.90;;;;;;5029654;28;20048;-74
2023/10/10 02:15:27;;;;;;;5.00;2.50;;;15.20;99.90;;;;;;5033716;28;20044;-74
2023/10/10 02:17:54;;;;;;;3.50;2.67;;;15.10;99.90;;;;;;5038141;28;20052;-75
2023/10/10 02:22:54;;;;;;;;;;;15.20;99.90;;;;;;5041519;28;20106;-74
2023/10/10 02:28:43;;;;;;;6.65;3.22;;;15.20;99.90;;;;;;5041422;28;20056;-74
2023/10/10 02:30:51;;;;;;;5.75;2.83;;;15.20;99.90;;;;;;5032722;28;20061;-74
2023/10/10 02:35:58;;;;;;;5.53;2.85;;;15.30;99.90;;;;;;5046001;28;20036;-74
2023/10/10 02:38:40;;;;;;;5.75;2.85;;;15.30;99.90;;;;;;5044779;28;20071;-74
2023/10/10 02:41:22;;;;;;;7.72;3.42;;;15.30;99.90;;;;;;5045109;28;20041;-74
2023/10/10 02:44:07;;;;;;;5.10;3.20;;;15.30;99.90;;;;;;5045335;28;20048;-75
2023/10/10 02:46:42;;;;;;;6.35;3.10;;;15.30;99.90;;;;;;5018062;28;20045;-74
2023/10/10 02:49:12;;;;;;;4.47;2.65;;;15.30;99.90;;;;;;5025793;28;20065;-74
2023/10/10 02:51:43;;;;;;;7.70;3.47;;;15.30;99.90;;;;;;5026644;28;20148;-74
2023/10/10 02:57:53;;;;;;;7.93;3.53;;;15.30;99.90;;;;;;5024139;28;20053;-74
2023/10/10 02:59:53;;;;;;;5.80;2.92;;;15.30;99.90;;;;;;5021529;28;20087;-74
2023/10/10 03:02:21;;;;;;;7.95;2.95;;;15.30;99.90;;;;;;5026361;28;20037;-74
2023/10/10 03:07:29;;;;;;;8.07;3.97;;;15.30;99.90;;;;;;5024616;28;20556;-74
2023/10/10 03:12:41;;;;;;;4.20;3.55;;;15.40;99.90;;;;;;5024671;28;20122;-75
2023/10/10 03:18:14;;;;;;;10.07;4.75;;;15.40;99.90;;;;;;5024569;28;20057;-75
2023/10/10 03:23:31;;;;;;;6.28;3.63;;;15.40;99.90;;;;;;5025222;28;20561;-74
2023/10/10 03:33:37;;;;;;;8.57;5.22;;;15.40;99.90;;;;;;5044793;28;20183;-75
2023/10/10 05:25:33;;;;;;;18.50;8.60;;;15.00;99.90;;;;;;5035285;28;20128;-75
2023/10/10 05:27:59;;;;;;;20.58;8.50;;;15.00;99.90;;;;;;5028376;28;20080;-77
2023/10/10 05:30:27;;;;;;;18.65;8.73;;;15.00;99.90;;;;;;5030065;28;20858;-73
2023/10/10 05:33:01;;;;;;;19.77;8.48;;;15.00;99.90;;;;;;5029054;28;20061;-73
2023/10/10 05:35:38;;;;;;;24.42;8.68;;;15.00;99.90;;;;;;5010582;28;20044;-72
2023/10/10 05:38:07;;;;;;;20.25;8.80;;;15.00;99.90;;;;;;5005793;28;20046;-72
2023/10/10 05:40:33;;;;;;;22.17;10.18;;;15.00;99.90;;;;;;5031387;28;20037;-72
2023/10/10 05:43:02;;;;;;;20.42;8.30;;;15.00;99.90;;;;;;5038049;28;20049;-73
2023/10/10 05:45:29;;;;;;;18.42;9.15;;;15.00;99.90;;;;;;5032082;28;20041;-72
2023/10/10 05:47:55;;;;;;;23.98;9.32;;;15.00;99.90;;;;;;5022134;28;20049;-73
2023/10/10 05:50:22;;;;;;;22.58;9.38;;;15.00;99.90;;;;;;5022753;28;20041;-73
2023/10/10 05:52:49;;;;;;;22.27;9.77;;;15.00;99.90;;;;;;5023218;28;20439;-72
2023/10/10 05:55:15;;;;;;;21.20;8.70;;;15.00;99.90;;;;;;5022761;28;20038;-74
2023/10/10 05:57:41;;;;;;;24.15;9.40;;;15.00;99.90;;;;;;5032525;28;20052;-74
2023/10/10 06:00:10;;;;;;;19.65;8.98;;;15.00;99.90;;;;;;5024897;28;20038;-74
2023/10/10 06:02:45;;;;;;;21.85;10.60;;;15.00;99.90;;;;;;5007965;28;20088;-75
2023/10/10 06:05:15;;;;;;;20.75;8.50;;;14.90;99.90;;;;;;5027945;28;20902;-74
2023/10/10 06:07:44;;;;;;;25.40;9.55;;;15.00;99.90;;;;;;5029795;28;20115;-73
2023/10/10 06:10:16;;;;;;;19.52;9.02;;;15.00;99.90;;;;;;5029544;28;20025;-73
2023/10/10 06:12:48;;;;;;;22.27;8.63;;;15.00;99.90;;;;;;5037733;28;20051;-78
2023/10/10 06:15:18;;;;;;;23.35;10.38;;;15.00;99.90;;;;;;5027662;28;20045;-74
2023/10/10 06:17:44;;;;;;;28.10;10.93;;;15.00;99.90;;;;;;5032985;28;20048;-73
2023/10/10 06:20:15;;;;;;;18.77;9.63;;;15.00;99.90;;;;;;5019794;28;20526;-73
2023/10/10 06:22:41;;;;;;;17.55;8.05;;;15.00;99.90;;;;;;5027163;28;20051;-74
2023/10/10 06:25:09;;;;;;;20.90;9.15;;;15.00;99.90;;;;;;5040900;28;20132;-74
2023/10/10 06:27:40;;;;;;;22.30;8.60;;;15.00;99.90;;;;;;5031684;28;20059;-74
2023/10/10 06:30:17;;;;;;;22.98;9.80;;;15.10;99.90;;;;;;5020650;28;20120;-74
2023/10/10 06:32:43;;;;;;;21.90;9.77;;;15.10;99.90;;;;;;5020890;28;20065;-74
2023/10/10 06:37:45;;;;;;;19.42;8.77;;;15.10;99.90;;;;;;5040864;28;20143;-74
2023/10/10 06:40:13;;;;;;;20.05;9.68;;;15.10;99.90;;;;;;5028178;28;20053;-74
2023/10/10 06:42:39;;;;;;;27.83;11.13;;;15.20;99.90;;;;;;5035496;28;20658;-74
2023/10/10 06:45:08;;;;;;;23.75;8.82;;;15.20;99.90;;;;;;5041512;28;20095;-73
2023/10/10 06:47:43;;;;;;;25.70;10.70;;;15.20;99.90;;;;;;5040727;28;20507;-73
2023/10/10 06:50:12;;;;;;;30.42;10.30;;;15.20;99.90;;;;;;5019743;28;20121;-75
2023/10/10 06:52:38;;;;;;;26.42;10.90;;;15.20;99.90;;;;;;5024531;28;20379;-73
2023/10/10 06:55:10;;;;;;;23.48;9.27;;;15.20;99.90;;;;;;5040426;28;20116;-74
2023/10/10 06:57:41;;;;;;;25.17;10.35;;;15.30;99.90;;;;;;5034991;28;20098;-73
2023/10/10 07:00:20;;;;;;;24.95;10.65;;;15.30;99.90;;;;;;5041069;28;20051;-72
2023/10/10 07:02:52;;;;;;;26.63;12.43;;;15.30;99.90;;;;;;5040943;28;20037;-73
2023/10/10 07:05:19;;;;;;;29.88;10.40;;;15.30;99.90;;;;;;5024233;28;20463;-75
2023/10/10 07:07:46;;;;;;;26.55;11.50;;;15.30;99.90;;;;;;5041712;28;20122;-73
2023/10/10 07:10:24;;;;;;;24.23;10.60;;;15.30;99.90;;;;;;5040891;28;20037;-74
2023/10/10 07:12:53;;;;;;;28.10;12.38;;;15.40;99.90;;;;;;5031379;28;20083;-74
2023/10/10 07:15:23;;;;;;;35.05;11.30;;;15.40;99.90;;;;;;5020417;28;20089;-74
2023/10/10 07:17:49;;;;;;;34.72;13.05;;;15.40;99.90;;;;;;5020173;28;20069;-73
2023/10/10 07:22:43;;;;;;;33.25;12.70;;;15.40;99.90;;;;;;5044374;28;20241;-74
2023/10/10 07:25:17;;;;;;;32.10;11.52;;;15.50;99.90;;;;;;5041820;28;20037;-75
2023/10/10 07:27:43;;;;;;;33.63;12.25;;;15.50;99.90;;;;;;5043068;28;20041;-71
2023/10/10 07:32:42;;;;;;;38.47;13.25;;;15.60;99.90;;;;;;5022750;28;20144;-71
2023/10/10 07:35:14;;;;;;;40.90;13.57;;;15.60;99.90;;;;;;5007084;28;20056;-71
2023/10/10 07:37:41;;;;;;;38.38;14.60;;;15.60;99.90;;;;;;5022736;28;20046;-70
2023/10/10 07:42:49;;;;;;;40.20;12.98;;;15.70;99.90;;;;;;5022749;28;20127;-71
2023/10/10 07:45:16;;;;;;;39.65;14.75;;;15.70;99.90;;;;;;5021452;28;20045;-72
2023/10/10 07:50:27;;;;;;;44.42;14.25;;;15.70;99.90;;;;;;5027942;28;20049;-73
2023/10/10 07:52:54;;;;;;;46.55;15.35;;;15.80;99.90;;;;;;5026992;28;20048;-73
2023/10/10 07:55:22;;;;;;;39.25;15.40;;;15.80;99.90;;;;;;5036565;28;20117;-74
2023/10/10 07:57:59;;;;;;;43.20;15.43;;;15.80;99.90;;;;;;5026378;28;20175;-75
2023/10/10 08:00:38;;;;;;;38.10;15.35;;;15.80;99.90;;;;;;5024121;28;20400;-75
2023/10/10 08:03:06;;;;;;;42.10;17.58;;;15.80;99.90;;;;;;5024844;28;20103;-74
2023/10/10 08:05:35;;;;;;;37.58;14.15;;;15.90;99.90;;;;;;5021484;28;20049;-75
2023/10/10 08:08:05;;;;;;;39.65;15.20;;;15.90;99.90;;;;;;5036305;28;20045;-74
2023/10/10 08:13:09;;;;;;;34.63;14.65;;;15.90;99.90;;;;;;5041945;28;20057;-74
2023/10/10 08:15:49;;;;;;;37.97;16.83;;;15.90;99.90;;;;;;5041371;28;20502;-75
2023/10/10 08:18:39;;;;;;;37.30;15.25;;;15.90;99.90;;;;;;5041858;28;20459;-75
2023/10/10 08:23:29;;;;;;;44.42;15.98;;;16.00;99.90;;;;;;5041478;28;20057;-75
2023/10/10 08:25:56;;;;;;;38.25;15.73;;;16.00;99.90;;;;;;5040726;28;20427;-75
2023/10/10 08:28:23;;;;;;;41.20;16.48;;;16.00;99.90;;;;;;5041129;28;20053;-75
2023/10/10 08:30:55;;;;;;;39.20;17.48;;;16.00;99.90;;;;;;5040348;28;20264;-75
2023/10/10 08:33:20;;;;;;;37.00;16.20;;;16.00;99.90;;;;;;5041029;28;20045;-75
2023/10/10 08:35:46;;;;;;;40.92;15.52;;;16.00;99.90;;;;;;5042934;28;20044;-72
2023/10/10 08:38:19;;;;;;;35.45;15.70;;;16.10;99.90;;;;;;5040679;28;20064;-73
2023/10/10 08:40:56;;;;;;;37.50;16.55;;;16.10;99.90;;;;;;5040069;28;20041;-72
2023/10/10 08:43:26;;;;;;;42.42;16.63;;;16.10;99.90;;;;;;5042222;28;20498;-72
2023/10/10 08:45:54;;;;;;;45.65;17.85;;;16.20;99.90;;;;;;5042480;28;20072;-72
2023/10/10 08:48:26;;;;;;;39.03;15.90;;;16.20;99.90;;;;;;5040618;28;20141;-71
2023/10/10 08:50:54;;;;;;;40.72;17.55;;;16.20;99.90;;;;;;5041695;28;20494;-72
2023/10/10 08:53:21;;;;;;;37.92;17.00;;;16.20;99.90;;;;;;5040643;28;20128;-72
2023/10/10 08:55:56;;;;;;;40.58;18.95;;;16.20;99.90;;;;;;5040048;28;20087;-72
2023/10/10 08:58:22;;;;;;;42.38;19.63;;;16.30;99.90;;;;;;5040452;28;20681;-72
2023/10/10 09:00:48;;;;;;;37.00;17.77;;;16.30;99.90;;;;;;5041084;28;20033;-72
2023/10/10 09:03:14;;;;;;;44.67;19.42;;;16.40;99.90;;;;;;5041106;28;20500;-73
2023/10/10 09:05:40;;;;;;;40.47;17.42;;;16.40;99.90;;;;;;5042795;28;20048;-72
2023/10/10 09:08:14;;;;;;;39.20;17.48;;;16.40;99.90;;;;;;5040725;28;20377;-73
2023/10/10 09:10:45;;;;;;;35.95;15.85;;;16.40;99.90;;;;;;5039410;28;20049;-73
2023/10/10 09:13:11;;;;;;;34.30;17.58;;;16.50;99.90;;;;;;5039994;28;20114;-73
2023/10/10 09:15:40;;;;;;;40.53;18.65;;;16.60;99.90;;;;;;5040978;28;20041;-72
2023/10/10 09:18:22;;;;;;;41.33;18.33;;;16.60;99.90;;;;;;5041152;28;20095;-72
2023/10/10 09:20:48;;;;;;;40.85;18.70;;;16.60;99.90;;;;;;5041800;28;20033;-72
2023/10/10 09:23:42;;;;;;;36.40;16.95;;;16.60;99.90;;;;;;5041817;28;20040;-72
2023/10/10 09:26:19;;;;;;;35.92;17.63;;;16.70;99.90;;;;;;5041037;28;20103;-72
2023/10/10 09:28:58;;;;;;;40.08;18.73;;;16.70;99.90;;;;;;5040732;28;20081;-72
2023/10/10 09:31:30;;;;;;;35.95;16.50;;;16.80;99.90;;;;;;5041646;28;20154;-72
2023/10/10 09:33:56;;;;;;;40.17;16.90;;;16.80;99.90;;;;;;5040230;28;20052;-72
2023/10/10 09:36:27;;;;;;;34.03;16.70;;;16.80;99.90;;;;;;5041196;28;20048;-72
2023/10/10 09:39:09;;;;;;;32.45;15.65;;;16.80;99.90;;;;;;5038991;28;20033;-72
2023/10/10 09:42:00;;;;;;;36.63;15.98;;;16.80;99.90;;;;;;5023335;28;20048;-71
2023/10/10 09:49:40;;;;;;;36.22;17.08;;;16.80;99.90;;;;;;5039528;28;20217;-72
2023/10/10 09:55:39;;;;;;;30.75;15.07;;;16.90;99.90;;;;;;5028168;28;20077;-72
2023/10/10 10:03:42;;;;;;;30.50;15.95;;;17.00;99.90;;;;;;5023440;28;20053;-72
2023/10/10 10:06:35;;;;;;;30.98;16.75;;;17.10;99.90;;;;;;5005494;28;20045;-72
2023/10/10 10:09:59;;;;;;;31.65;14.27;;;17.10;99.90;;;;;;5023587;28;20445;-72
2023/10/10 10:13:08;;;;;;;28.95;14.88;;;17.10;99.90;;;;;;4965577;28;20241;-72
2023/10/10 10:16:20;;;;;;;33.42;15.02;;;17.20;99.90;;;;;;4999031;28;20050;-73
2023/10/10 10:18:47;;;;;;;37.30;15.23;;;17.20;99.90;;;;;;5001884;28;20093;-72
2023/10/10 10:21:32;;;;;;;30.35;16.10;;;17.20;99.90;;;;;;5032343;28;20092;-72
2023/10/10 10:24:16;;;;;;;31.45;15.30;;;17.30;99.90;;;;;;5022796;28;20045;-72
2023/10/10 10:26:43;;;;;;;28.83;14.63;;;17.30;99.90;;;;;;5020735;28;20045;-73
2023/10/10 10:29:15;;;;;;;31.83;16.02;;;17.40;99.90;;;;;;5021061;28;20053;-74
2023/10/10 10:31:50;;;;;;;30.95;16.50;;;17.40;99.90;;;;;;5020027;28;20049;-73
2023/10/10 10:34:31;;;;;;;28.13;15.82;;;17.40;99.90;;;;;;5044828;28;20717;-72
2023/10/10 10:37:29;;;;;;;30.17;14.88;;;17.50;99.90;;;;;;5019170;28;20083;-72
2023/10/10 10:42:46;;;;;;;34.80;15.77;;;17.50;99.90;;;;;;5034645;28;20081;-74
2023/10/10 10:45:38;;;;;;;31.13;16.27;;;17.50;99.90;;;;;;5040255;28;20083;-74
2023/10/10 10:48:33;;;;;;;38.03;16.17;;;17.60;99.90;;;;;;5038779;28;20099;-73
2023/10/10 10:51:23;;;;;;;26.75;13.77;;;17.60;99.90;;;;;;5029576;28;20042;-73
2023/10/10 10:53:58;;;;;;;32.00;16.13;;;17.70;99.90;;;;;;5037910;28;20041;-73
2023/10/10 10:59:12;;;;;;;29.83;15.27;;;17.80;99.90;;;;;;5028149;28;20045;-73
2023/10/10 11:01:51;;;;;;;27.05;14.25;;;17.90;99.90;;;;;;5021220;28;20668;-73
2023/10/10 11:05:07;;;;;;;27.70;13.57;;;17.90;99.90;;;;;;5006522;28;20049;-73
2023/10/10 11:07:29;;;;;;;27.30;14.73;;;17.90;99.90;;;;;;5029529;28;20496;-73
2023/10/10 11:10:06;;;;;;;24.45;13.05;;;18.00;99.90;;;;;;5042796;28;20037;-74
2023/10/10 11:12:32;;;;;;;22.10;13.20;;;18.00;99.90;;;;;;5043122;28;20049;-73
2023/10/10 11:15:04;;;;;;;26.95;14.43;;;18.10;99.90;;;;;;5024659;28;20056;-73
2023/10/10 11:17:37;;;;;;;;;;;18.10;99.90;;;;;;5023415;28;20877;-73
2023/10/10 11:20:27;;;;;;;30.48;13.93;;;18.20;99.90;;;;;;5025628;28;19920;-74
2023/10/10 11:22:55;;;;;;;29.50;13.38;;;18.20;99.90;;;;;;5023493;28;20045;-73
2023/10/10 11:25:35;;;;;;;31.83;14.43;;;18.20;99.90;;;;;;5022536;28;20037;-73
2023/10/10 11:28:04;;;;;;;31.55;14.02;;;18.20;99.90;;;;;;5024814;28;20107;-75
2023/10/10 11:30:33;;;;;;;26.23;15.55;;;18.30;99.90;;;;;;5024445;28;20042;-75
2023/10/10 11:33:17;;;;;;;24.35;13.88;;;18.30;99.90;;;;;;5040315;28;20079;-75
2023/10/10 11:35:48;;;;;;;27.95;13.70;;;18.30;99.90;;;;;;5035068;28;20103;-75
2023/10/10 11:38:17;;;;;;;25.00;12.07;;;18.30;99.90;;;;;;5030375;28;20057;-74
2023/10/10 11:40:44;;;;;;;21.95;11.60;;;18.40;99.90;;;;;;5037395;28;20276;-74
2023/10/10 11:43:11;;;;;;;29.75;12.45;;;18.40;99.90;;;;;;5040262;28;20049;-76
2023/10/10 11:45:41;;;;;;;23.38;11.70;;;18.50;99.90;;;;;;5043065;28;20108;-76
2023/10/10 11:48:14;;;;;;;25.83;13.65;;;18.50;99.90;;;;;;5034426;28;20124;-74
2023/10/10 11:50:43;;;;;;;24.48;11.93;;;18.60;99.90;;;;;;5032262;28;20056;-75
2023/10/10 11:53:15;;;;;;;28.75;13.10;;;18.60;99.90;;;;;;5009752;28;20432;-76
2023/10/10 11:55:54;;;;;;;24.20;12.23;;;18.60;99.90;;;;;;5023602;28;20056;-75
2023/10/10 11:58:21;;;;;;;22.70;10.93;;;18.70;99.90;;;;;;5033985;28;20496;-75
2023/10/10 12:01:03;;;;;;;25.75;12.13;;;18.70;99.90;;;;;;5026712;28;20087;-74
2023/10/10 12:06:26;;;;;;;20.98;11.65;;;18.70;99.90;;;;;;5040853;28;20132;-74
2023/10/10 12:08:53;;;;;;;23.60;11.90;;;18.70;99.90;;;;;;5021468;28;20041;-74
2023/10/10 12:11:21;;;;;;;22.08;10.45;;;18.80;99.90;;;;;;5022073;28;20511;-74
2023/10/10 12:13:51;;;;;;;20.88;9.90;;;18.80;99.90;;;;;;5022267;28;20116;-77
2023/10/10 12:16:17;;;;;;;24.23;11.35;;;18.80;99.90;;;;;;5030582;28;20293;-76
2023/10/10 12:18:46;;;;;;;24.38;11.45;;;18.80;99.90;;;;;;5042109;28;20102;-76
2023/10/10 12:21:22;;;;;;;20.98;11.15;;;18.80;99.90;;;;;;5030883;28;20523;-77
2023/10/10 12:23:52;;;;;;;25.27;12.10;;;18.70;99.90;;;;;;5040836;28;20045;-77
2023/10/10 12:26:18;;;;;;;27.15;11.82;;;18.80;99.90;;;;;;5041804;28;20470;-77
2023/10/10 12:28:47;;;;;;;22.42;9.95;;;18.70;99.90;;;;;;5025009;28;20107;-77
2023/10/10 12:31:16;;;;;;;19.33;10.80;;;18.80;99.90;;;;;;5041506;28;20040;-77
2023/10/10 12:33:53;;;;;;;21.83;10.43;;;18.70;99.90;;;;;;5023312;28;20049;-77
2023/10/10 12:36:28;;;;;;;23.20;10.77;;;18.80;99.90;;;;;;5004909;28;20037;-77
2023/10/10 12:38:55;;;;;;;21.20;10.95;;;18.80;99.90;;;;;;5022378;28;20050;-77
2023/10/10 12:41:21;;;;;;;23.90;11.63;;;18.80;99.90;;;;;;5021631;28;20076;-77
2023/10/10 12:43:49;;;;;;;18.67;9.20;;;18.80;99.90;;;;;;5034249;28;20084;-77
2023/10/10 12:46:17;;;;;;;23.63;10.38;;;18.80;99.90;;;;;;5028033;28;20425;-77
2023/10/10 12:48:46;;;;;;;22.20;10.50;;;18.70;99.90;;;;;;5038475;28;20752;-77
2023/10/10 12:51:12;;;;;;;21.90;11.55;;;18.70;99.90;;;;;;5022412;28;20034;-76
2023/10/10 12:53:39;;;;;;;23.35;10.98;;;18.80;99.90;;;;;;5020458;28;20077;-77
2023/10/10 12:56:16;;;;;;;23.30;11.80;;;18.70;99.90;;;;;;5021040;28;20076;-78
2023/10/10 12:58:51;;;;;;;26.85;12.75;;;18.80;99.90;;;;;;5020965;28;20096;-77
2023/10/10 13:01:22;;;;;;;23.27;10.90;;;18.80;99.90;;;;;;5004704;28;20044;-77
2023/10/10 13:03:48;;;;;;;29.73;13.23;;;18.80;99.90;;;;;;5027700;28;20130;-77
2023/10/10 13:06:15;;;;;;;25.65;12.30;;;18.80;99.90;;;;;;5028760;28;20059;-77
2023/10/10 13:08:48;;;;;;;28.13;14.48;;;18.80;99.90;;;;;;5041139;28;20557;-76
2023/10/10 13:11:15;;;;;;;31.50;13.82;;;18.90;99.90;;;;;;5032675;28;20049;-77
2023/10/10 13:13:56;;;;;;;30.88;14.52;;;18.90;99.90;;;;;;5023281;28;20115;-76
2023/10/10 13:16:37;;;;;;;37.90;16.92;;;19.00;99.90;;;;;;5035398;28;20037;-76
2023/10/10 13:19:06;;;;;;;34.35;17.45;;;19.00;99.90;;;;;;5032227;28;20045;-76
2023/10/10 13:21:36;;;;;;;34.40;17.23;;;19.10;99.90;;;;;;5027856;28;20044;-77
2023/10/10 13:24:02;;;;;;;35.10;18.05;;;19.10;99.90;;;;;;5027482;28;20053;-76
2023/10/10 13:26:28;;;;;;;29.13;16.70;;;19.10;99.90;;;;;;5014457;28;20452;-76
2023/10/10 13:28:54;;;;;;;33.10;17.00;;;19.10;99.90;;;;;;5032140;28;20037;-76
2023/10/10 13:31:24;;;;;;;32.28;17.90;;;19.10;99.90;;;;;;5033917;28;20507;-76
2023/10/10 13:33:51;;;;;;;37.28;18.30;;;19.00;99.90;;;;;;5031956;28;20053;-76
2023/10/10 13:36:16;;;;;;;40.03;17.63;;;19.10;99.90;;;;;;5023065;28;20041;-75
2023/10/10 13:38:49;;;;;;;36.45;19.45;;;19.00;99.90;;;;;;5022580;28;20631;-78
2023/10/10 13:41:19;;;;;;;39.85;20.42;;;19.10;99.90;;;;;;5021892;28;20180;-77
2023/10/10 13:43:48;;;;;;;35.42;19.08;;;19.00;99.90;;;;;;5024776;28;20044;-77
2023/10/10 13:46:15;;;;;;;37.97;19.88;;;19.00;99.90;;;;;;5032861;28;20049;-77
2023/10/10 13:48:41;;;;;;;37.22;20.38;;;19.00;99.90;;;;;;5031060;28;20042;-76
2023/10/10 13:51:07;;;;;;;39.03;20.67;;;19.00;99.90;;;;;;5033181;28;20079;-76
2023/10/10 13:53:40;;;;;;;37.50;20.65;;;19.00;99.90;;;;;;5040443;28;20569;-76
2023/10/10 13:56:10;;;;;;;42.65;20.45;;;19.00;99.90;;;;;;5040456;28;20048;-77
2023/10/10 13:58:36;;;;;;;37.40;20.27;;;19.00;99.90;;;;;;5029999;28;20049;-76
2023/10/10 14:01:29;;;;;;;39.92;21.02;;;19.00;99.90;;;;;;5030639;28;20092;-77
2023/10/10 14:04:13;;;;;;;38.92;20.17;;;19.00;99.90;;;;;;5022207;28;20057;-76
2023/10/10 14:06:48;;;;;;;41.45;22.05;;;19.00;99.90;;;;;;5026329;28;20127;-77
2023/10/10 14:09:24;;;;;;;39.72;21.25;;;19.00;99.90;;;;;;5035920;28;20052;-77
2023/10/10 14:12:02;;;;;;;41.92;21.75;;;19.00;99.90;;;;;;5042245;28;20059;-76
2023/10/10 14:14:29;;;;;;;40.08;20.75;;;19.00;99.90;;;;;;5039466;28;20068;-76
2023/10/10 14:16:55;;;;;;;39.08;17.88;;;19.00;99.90;;;;;;5039437;28;20033;-77
2023/10/10 14:19:23;;;;;;;32.47;17.92;;;19.10;99.90;;;;;;5032164;28;20053;-76
2023/10/10 14:21:52;;;;;;;36.63;18.48;;;19.10;99.90;;;;;;5016603;28;20124;-76
2023/10/10 14:24:18;;;;;;;40.00;18.95;;;19.10;99.90;;;;;;5040347;28;20048;-76
2023/10/10 14:26:44;;;;;;;36.50;17.88;;;19.10;99.90;;;;;;5031894;28;20064;-76
2023/10/10 14:29:13;;;;;;;32.05;18.45;;;19.10;99.90;;;;;;5032499;28;20392;-77
2023/10/10 14:31:43;;;;;;;27.80;17.02;;;19.10;99.90;;;;;;5009629;28;20053;-75
2023/10/10 14:34:15;;;;;;;36.08;18.23;;;19.10;99.90;;;;;;5038707;28;20049;-77
2023/10/10 14:36:40;;;;;;;;;;;19.10;99.90;;;;;;5031798;28;20144;-76
2023/10/10 14:39:23;;;;;;;34.20;18.02;;;19.10;99.90;;;;;;5028803;28;20015;-76
2023/10/10 14:41:49;;;;;;;35.72;17.98;;;19.10;99.90;;;;;;5024748;28;20073;-77
2023/10/10 14:44:14;;;;;;;34.42;17.77;;;19.10;99.90;;;;;;5021809;28;20045;-76
2023/10/10 14:46:40;;;;;;;37.67;18.33;;;19.00;99.90;;;;;;5028135;28;20051;-76
2023/10/10 14:49:16;;;;;;;36.13;18.20;;;19.00;99.90;;;;;;5029950;28;20800;-76
2023/10/10 14:51:48;;;;;;;35.10;16.75;;;19.00;99.90;;;;;;5027931;28;20045;-76
2023/10/10 14:54:17;;;;;;;37.33;19.48;;;19.00;99.90;;;;;;5032132;28;20048;-77
2023/10/10 14:56:49;;;;;;;34.88;19.10;;;19.00;99.90;;;;;;5023477;28;20042;-78
2023/10/10 14:59:31;;;;;;;39.72;19.77;;;19.00;99.90;;;;;;5026906;28;20037;-77
2023/10/10 15:02:00;;;;;;;32.63;17.73;;;18.90;99.90;;;;;;5040051;28;20068;-77
2023/10/10 15:04:30;;;;;;;38.15;18.35;;;18.90;99.90;;;;;;5038764;28;20711;-77
2023/10/10 15:06:59;;;;;;;35.47;18.42;;;18.90;99.90;;;;;;5034807;28;20080;-76
2023/10/10 15:09:25;;;;;;;33.13;18.50;;;18.90;99.90;;;;;;5006587;28;20076;-78
2023/10/10 15:11:58;;;;;;;31.35;17.33;;;18.90;99.90;;;;;;5025108;28;20434;-77
2023/10/10 15:14:25;;;;;;;33.17;17.08;;;18.80;99.90;;;;;;5022343;28;20111;-77
2023/10/10 15:16:51;;;;;;;34.45;17.77;;;18.80;99.90;;;;;;5005263;28;20474;-77
2023/10/10 15:19:16;;;;;;;33.33;18.98;;;18.80;99.90;;;;;;5025964;28;20083;-77
2023/10/10 15:21:47;;;;;;;33.30;18.25;;;18.80;99.90;;;;;;5024882;28;20414;-77
2023/10/10 15:24:13;;;;;;;33.22;17.58;;;18.80;99.90;;;;;;5031981;28;20368;-77
2023/10/10 15:26:41;;;;;;;30.85;16.80;;;18.80;99.90;;;;;;5039599;28;20065;-78
2023/10/10 15:29:10;;;;;;;34.38;16.92;;;18.80;99.90;;;;;;5039414;28;20049;-77
2023/10/10 15:31:37;;;;;;;28.10;15.43;;;18.80;99.90;;;;;;5035127;28;20083;-74
2023/10/10 15:34:03;;;;;;;30.83;16.13;;;18.80;99.90;;;;;;5031685;28;20231;-75
2023/10/10 15:36:30;;;;;;;31.10;15.57;;;18.70;99.90;;;;;;5038907;28;20459;-74
2023/10/10 15:39:04;;;;;;;31.17;16.60;;;18.70;99.90;;;;;;5025806;28;20076;-75
2023/10/10 15:41:31;;;;;;;30.88;14.50;;;18.70;99.90;;;;;;5042041;28;20056;-75
2023/10/10 15:44:02;;;;;;;26.20;14.63;;;18.70;99.90;;;;;;5026695;28;20041;-74
2023/10/10 15:46:32;;;;;;;29.55;14.55;;;18.70;99.90;;;;;;5031365;28;20048;-75
2023/10/10 15:48:59;;;;;;;30.38;15.27;;;18.70;99.90;;;;;;5034067;28;20053;-75
2023/10/10 15:51:25;;;;;;;29.83;15.13;;;18.70;99.90;;;;;;5037225;28;20098;-75
2023/10/10 15:53:53;;;;;;;32.80;15.38;;;18.70;99.90;;;;;;5029418;28;20052;-75
2023/10/10 15:56:20;;;;;;;24.02;14.50;;;18.60;99.90;;;;;;5028141;28;20412;-75
2023/10/10 15:58:50;;;;;;;24.48;15.63;;;18.60;99.90;;;;;;5026571;28;20050;-75
2023/10/10 16:01:23;;;;;;;22.58;12.90;;;18.60;99.90;;;;;;5018177;28;20069;-75
2023/10/10 16:03:52;;;;;;;31.63;16.13;;;18.60;99.90;;;;;;5022857;28;20607;-75
2023/10/10 16:06:19;;;;;;;26.50;13.93;;;18.50;99.90;;;;;;5042442;28;20635;-75